Disclaimer

Please do not use the information listed here in-flight or in-navigation, as they are not provided to us by the airports but are provided by volunteers, so they might be outdated.

Search


Regions


Airport information page

Radio informations:
CLD - 121.95 MHz

Airport informations:
Latitude: 23° 23' 32.77" N
Longitude: 113° 17' 55.63" E
Elevation: 50 feet - 15 meters
Operating hours: 24 hour operations
Operating agency: Civil government, landing fees and diplomatic clearance may be required
Timezone: UTC+8
Fuel: Jet fuel avaiable but type is unknown.

Runway information:
02R/20L - 12467 x 197 feet< - >3800 x 60 meters
02L/20R - 11811 x 148 feet< - >3600 x 45 meters

Recent METARs:
ZGGG 190430Z 05003MPS 010V090 9999 FEW030 22/14 Q1019 NOSIG
ZGGG 190430Z 05003MPS 010V090 9999 FEW030 22/14 Q1019 NOSIG
ZGGG 190530Z 34005MPS 290V030 9999 SCT030 22/14 Q1018 NOSIG

Airport on the map: